Time;durP1;ratioP1;P1;durP2;ratioP2;P2;SDS_P1;SDS_P2;PMS_P1;PMS_P2;Temp;Humidity;BMP_temperature;BMP_pressure;BME280_temperature;BME280_humidity;BME280_pressure;Samples;Min_cycle;Max_cycle;Signal;HPM_P1;HPM_P2
2021/04/17 00:02:06;;;;;;;1.10;0.70;;;;;;;3.19;57.67;101869.73;115573;1212;62410;-74
2021/04/17 00:04:36;;;;;;;3.20;1.10;;;;;;;3.18;57.35;101863.63;115612;1212;62378;-74
2021/04/17 00:07:03;;;;;;;2.10;1.20;;;;;;;3.17;57.26;101861.96;115569;1211;62169;-74
2021/04/17 00:09:29;;;;;;;1.83;0.93;;;;;;;3.15;57.38;101863.84;115581;1212;62324;-75
2021/04/17 00:11:59;;;;;;;1.95;0.80;;;;;;;3.14;57.66;101856.90;115802;1212;62292;-75
2021/04/17 00:14:33;;;;;;;1.60;1.00;;;;;;;3.11;57.76;101853.66;115765;1212;62284;-74
2021/04/17 00:17:10;;;;;;;2.45;1.15;;;;;;;3.08;57.61;101851.20;115543;1212;62621;-75
2021/04/17 00:19:37;;;;;;;3.70;1.17;;;;;;;3.05;57.93;101852.25;115454;1212;62276;-75
2021/04/17 00:22:04;;;;;;;5.00;1.45;;;;;;;3.00;58.21;101849.09;115618;1212;62407;-75
2021/04/17 00:24:31;;;;;;;1.73;0.97;;;;;;;2.96;58.35;101852.84;115589;1212;63104;-75
2021/04/17 00:26:57;;;;;;;1.70;1.13;;;;;;;2.89;58.56;101849.77;115759;1211;63076;-75
2021/04/17 00:29:24;;;;;;;3.03;1.47;;;;;;;2.84;58.72;101843.96;115563;1212;62713;-74
2021/04/17 00:31:51;;;;;;;2.17;1.07;;;;;;;2.78;59.67;101852.20;115533;1212;62436;-74
2021/04/17 00:34:17;;;;;;;3.37;1.33;;;;;;;2.72;59.15;101850.83;115840;1212;62373;-75
2021/04/17 00:36:44;;;;;;;8.20;1.20;;;;;;;2.65;59.44;101844.27;115776;1212;62203;-75
2021/04/17 00:39:11;;;;;;;3.95;1.20;;;;;;;2.60;59.42;101846.34;115761;1211;62515;-75
2021/04/17 00:41:37;;;;;;;2.57;1.23;;;;;;;2.57;59.70;101851.75;115579;1212;62441;-75
2021/04/17 00:44:05;;;;;;;2.30;0.80;;;;;;;2.51;59.94;101858.23;115761;1211;62695;-75
2021/04/17 00:46:32;;;;;;;2.35;1.20;;;;;;;2.48;59.98;101852.33;115576;1212;62171;-75
2021/04/17 00:49:02;;;;;;;3.37;1.60;;;;;;;2.42;60.00;101845.67;115552;1211;62432;-75
2021/04/17 00:51:29;;;;;;;4.07;1.50;;;;;;;2.40;60.25;101855.40;115778;1211;62371;-75
2021/04/17 00:53:56;;;;;;;2.40;1.10;;;;;;;2.37;60.39;101848.58;115774;1212;62206;-75
2021/04/17 00:56:22;;;;;;;4.93;1.63;;;;;;;2.33;60.56;101847.08;115765;1212;62253;-75
2021/04/17 00:58:49;;;;;;;4.53;1.10;;;;;;;2.31;60.36;101848.95;115576;1212;62074;-74
2021/04/17 01:01:16;;;;;;;4.13;1.63;;;;;;;2.29;60.54;101852.60;115584;1211;62127;-75
2021/04/17 01:04:06;;;;;;;2.25;1.10;;;;;;;2.23;60.84;101854.66;115540;1212;62613;-75
2021/04/17 01:06:48;;;;;;;8.60;1.55;;;;;;;2.19;61.01;101852.30;115597;1211;62627;-75
2021/04/17 01:09:26;;;;;;;2.95;1.55;;;;;;;2.16;61.03;101852.50;115569;1212;63137;-75
2021/04/17 01:12:00;;;;;;;6.65;1.80;;;;;;;2.12;61.32;101850.99;115781;1212;62216;-75
2021/04/17 01:14:28;;;;;;;3.90;1.40;;;;;;;2.09;61.41;101846.79;115722;1212;62897;-75
2021/04/17 01:16:56;;;;;;;2.60;1.00;;;;;;;2.07;61.53;101847.82;115556;1212;62131;-75
2021/04/17 01:19:59;;;;;;;3.60;1.30;;;;;;;2.04;62.23;101841.83;115543;1212;62427;-75
2021/04/17 01:22:26;;;;;;;2.60;1.50;;;;;;;2.03;62.16;101850.60;115647;1212;62786;-75
2021/04/17 01:25:05;;;;;;;2.87;0.80;;;;;;;2.04;62.89;101847.07;115889;1212;62043;-74
2021/04/17 01:27:32;;;;;;;3.27;1.40;;;;;;;2.04;62.80;101849.69;115784;1212;62118;-75
2021/04/17 01:30:00;;;;;;;4.23;1.43;;;;;;;2.07;62.66;101847.82;115571;1212;62326;-75
2021/04/17 01:32:28;;;;;;;6.27;1.00;;;;;;;2.10;62.94;101848.45;115784;1211;62108;-75
2021/04/17 01:34:56;;;;;;;2.90;1.30;;;;;;;2.14;63.27;101849.13;115806;1212;62161;-75
2021/04/17 01:37:48;;;;;;;2.57;1.13;;;;;;;2.17;63.02;101854.20;115578;1212;62439;-75
2021/04/17 01:40:15;;;;;;;3.15;1.10;;;;;;;2.22;63.20;101850.34;115851;1212;63480;-75
2021/04/17 01:42:44;;;;;;;3.73;1.40;;;;;;;2.25;63.15;101841.46;115750;1211;62361;-75
2021/04/17 01:45:12;;;;;;;3.90;1.10;;;;;;;2.30;63.58;101844.66;115859;1212;62445;-75
2021/04/17 01:47:39;;;;;;;3.30;1.20;;;;;;;2.35;63.46;101844.38;115866;1212;62479;-75
2021/04/17 01:50:07;;;;;;;5.30;1.57;;;;;;;2.38;63.49;101842.42;115506;1212;62489;-75
2021/04/17 01:52:33;;;;;;;1.55;0.70;;;;;;;2.41;63.25;101839.61;115795;1212;63181;-75
2021/04/17 01:55:01;;;;;;;2.77;0.90;;;;;;;2.43;62.92;101839.52;115810;1212;62290;-75
2021/04/17 01:57:29;;;;;;;3.93;1.27;;;;;;;2.44;62.73;101846.42;115555;1212;64137;-75
2021/04/17 01:59:56;;;;;;;5.37;1.40;;;;;;;2.44;62.87;101847.30;115783;1211;62150;-75
2021/04/17 02:02:23;;;;;;;3.80;1.37;;;;;;;2.44;62.54;101839.44;115804;1211;62309;-75
2021/04/17 02:04:50;;;;;;;1.37;0.73;;;;;;;2.44;62.59;101839.44;115557;1212;62668;-75
2021/04/17 02:07:17;;;;;;;3.35;1.10;;;;;;;2.42;62.53;101838.69;115597;1212;62872;-75
2021/04/17 02:09:44;;;;;;;3.00;1.03;;;;;;;2.42;62.49;101837.81;115788;1212;62319;-75
2021/04/17 02:12:11;;;;;;;3.95;1.00;;;;;;;2.41;62.62;101839.61;115576;1212;62436;-75
2021/04/17 02:14:37;;;;;;;2.57;1.00;;;;;;;2.42;62.47;101827.34;115562;1212;62553;-75
2021/04/17 02:17:15;;;;;;;2.45;0.75;;;;;;;2.42;62.49;101830.83;115589;1212;63744;-75
2021/04/17 02:20:06;;;;;;;3.00;1.00;;;;;;;2.43;62.90;101832.50;115761;1212;62179;-75
2021/04/17 02:22:34;;;;;;;4.13;1.27;;;;;;;2.42;62.79;101828.21;115822;1212;62265;-76
2021/04/17 02:25:02;;;;;;;1.40;0.70;;;;;;;2.43;62.49;101824.64;115527;1212;62682;-75
2021/04/17 02:27:29;;;;;;;2.20;0.90;;;;;;;2.44;62.65;101823.72;115620;1212;62436;-75
2021/04/17 02:29:56;;;;;;;3.90;1.70;;;;;;;2.47;62.47;101832.33;115550;1212;63179;-76
2021/04/17 02:32:24;;;;;;;2.90;1.10;;;;;;;2.49;62.47;101820.81;115506;1212;62394;-76
2021/04/17 02:34:52;;;;;;;2.10;0.90;;;;;;;2.50;62.38;101816.41;115650;1211;62049;-75
2021/04/17 02:37:20;;;;;;;2.13;1.10;;;;;;;2.53;62.21;101810.97;115595;1212;62396;-75
2021/04/17 02:39:47;;;;;;;1.10;0.45;;;;;;;2.54;62.41;101810.05;115615;1210;62411;-75
2021/04/17 02:42:14;;;;;;;2.47;0.87;;;;;;;2.55;62.03;101812.58;115574;1212;62922;-75
2021/04/17 02:44:41;;;;;;;2.30;0.80;;;;;;;2.55;62.20;101811.72;115578;1211;62299;-75
2021/04/17 02:47:08;;;;;;;2.57;1.10;;;;;;;2.55;62.03;101809.96;115629;1212;62564;-75
2021/04/17 02:49:35;;;;;;;1.67;0.90;;;;;;;2.54;62.08;101805.64;115775;1212;62283;-76
2021/04/17 02:52:01;;;;;;;4.05;1.10;;;;;;;2.54;62.36;101804.81;115625;1211;62432;-75
2021/04/17 02:54:28;;;;;;;2.47;1.30;;;;;;;2.53;62.01;101798.73;115580;1211;63967;-76
2021/04/17 02:56:55;;;;;;;1.97;0.93;;;;;;;2.52;62.06;101796.20;115794;1212;62016;-75
2021/04/17 02:59:21;;;;;;;2.15;0.80;;;;;;;2.52;62.40;101797.03;115605;1212;62307;-75
2021/04/17 03:01:48;;;;;;;2.05;0.80;;;;;;;2.52;62.32;101793.58;115600;1211;62643;-75
2021/04/17 03:04:14;;;;;;;2.40;1.00;;;;;;;2.51;62.46;101794.50;115795;1212;62210;-75
2021/04/17 03:06:41;;;;;;;2.33;1.03;;;;;;;2.50;62.51;101787.59;115626;1212;62479;-75
2021/04/17 03:09:08;;;;;;;4.87;1.70;;;;;;;2.50;62.58;101783.19;115715;1212;62308;-75
2021/04/17 03:11:35;;;;;;;3.20;1.30;;;;;;;2.51;62.47;101784.02;115590;1212;62195;-75
2021/04/17 03:14:01;;;;;;;2.40;1.10;;;;;;;2.50;62.49;101780.58;115610;1212;62498;-76
2021/04/17 03:16:28;;;;;;;2.77;1.03;;;;;;;2.50;62.80;101779.73;115597;1212;63117;-76
2021/04/17 03:18:55;;;;;;;3.33;1.37;;;;;;;2.49;62.60;101780.66;115610;1212;64301;-75
2021/04/17 03:21:22;;;;;;;4.73;1.23;;;;;;;2.48;62.59;101784.23;115786;1212;62183;-75
2021/04/17 03:23:48;;;;;;;2.80;1.13;;;;;;;2.45;62.77;101780.03;115597;1212;62513;-76
2021/04/17 03:26:15;;;;;;;3.10;1.55;;;;;;;2.42;63.11;101780.20;115640;1211;62250;-75
2021/04/17 03:28:42;;;;;;;1.60;0.70;;;;;;;2.40;63.03;101780.33;115604;1212;62984;-75
2021/04/17 03:31:09;;;;;;;4.30;1.50;;;;;;;2.38;63.03;101776.95;115533;1212;62550;-75
2021/04/17 03:33:35;;;;;;;6.10;2.30;;;;;;;2.37;62.95;101775.26;115565;1211;62695;-76
2021/04/17 03:36:02;;;;;;;1.60;1.05;;;;;;;2.36;63.21;101775.34;115611;1212;62326;-74
2021/04/17 03:38:29;;;;;;;2.55;1.15;;;;;;;2.37;63.37;101775.26;115751;1211;62331;-74
2021/04/17 03:40:56;;;;;;;1.40;0.83;;;;;;;2.38;63.46;101770.86;115663;1212;62512;-74
2021/04/17 03:43:22;;;;;;;7.50;1.67;;;;;;;2.38;62.97;101769.10;115602;1212;62285;-75
2021/04/17 03:45:49;;;;;;;4.47;1.07;;;;;;;2.41;63.10;101779.38;115541;1212;62366;-75
2021/04/17 03:48:15;;;;;;;3.17;1.00;;;;;;;2.42;63.57;101773.22;115789;1211;62384;-76
2021/04/17 03:50:42;;;;;;;3.25;1.30;;;;;;;2.44;63.16;101773.96;115770;1212;62105;-75
2021/04/17 03:53:09;;;;;;;4.97;1.57;;;;;;;2.48;63.41;101773.75;115779;1212;62448;-75
2021/04/17 03:55:37;;;;;;;4.85;1.50;;;;;;;2.51;63.07;101777.03;115798;1212;62358;-75
2021/04/17 03:58:04;;;;;;;2.10;1.05;;;;;;;2.53;63.00;101774.30;115683;1211;63195;-75
2021/04/17 04:00:30;;;;;;;3.35;1.50;;;;;;;2.53;62.92;101771.67;115568;1212;62460;-75
2021/04/17 04:02:57;;;;;;;3.10;1.30;;;;;;;2.52;63.05;101776.08;115645;1212;64288;-75
2021/04/17 04:05:24;;;;;;;1.85;1.15;;;;;;;2.50;62.93;101772.72;115605;1212;62534;-75
2021/04/17 04:07:50;;;;;;;2.65;1.50;;;;;;;2.49;63.12;101775.42;115695;1212;62345;-75
2021/04/17 04:10:17;;;;;;;4.97;1.70;;;;;;;2.48;63.08;101781.61;115150;1212;63253;-76
2021/04/17 04:12:45;;;;;;;4.75;1.80;;;;;;;2.48;63.13;101779.83;115491;1212;64189;-76
2021/04/17 04:15:13;;;;;;;6.30;1.80;;;;;;;2.49;63.14;101785.90;115525;1212;62700;-76
2021/04/17 04:17:40;;;;;;;3.60;1.23;;;;;;;2.52;63.30;101783.11;116053;1212;62112;-73
2021/04/17 04:20:09;;;;;;;5.63;1.80;;;;;;;2.53;63.32;101780.41;115792;1212;62152;-74
2021/04/17 04:22:35;;;;;;;8.20;1.90;;;;;;;2.57;63.17;101783.64;115734;1212;62526;-73
2021/04/17 04:25:07;;;;;;;7.20;2.00;;;;;;;2.59;63.21;101779.16;115617;1212;62447;-74
2021/04/17 04:27:33;;;;;;;4.67;1.60;;;;;;;2.60;63.07;101780.85;115809;1211;62122;-74
2021/04/17 04:30:00;;;;;;;3.75;1.30;;;;;;;2.62;63.47;101781.59;115585;1212;62298;-74
2021/04/17 04:32:26;;;;;;;9.85;2.30;;;;;;;2.66;63.53;101777.84;115568;1212;63356;-74
2021/04/17 04:34:53;;;;;;;6.20;2.25;;;;;;;2.69;63.45;101788.13;115593;1212;63391;-74
2021/04/17 04:37:20;;;;;;;7.15;2.00;;;;;;;2.71;63.75;101783.63;115571;1212;62459;-74
2021/04/17 04:39:46;;;;;;;8.60;1.83;;;;;;;2.75;63.61;101787.73;115602;1212;62591;-74
2021/04/17 04:42:13;;;;;;;5.83;2.43;;;;;;;2.78;64.19;101787.53;115543;1212;62300;-74
2021/04/17 04:44:39;;;;;;;3.67;1.70;;;;;;;2.83;63.76;101787.27;115569;1212;62484;-74
2021/04/17 04:47:07;;;;;;;6.35;1.50;;;;;;;2.83;64.02;101789.88;115746;1212;63173;-74
2021/04/17 04:49:34;;;;;;;5.00;2.00;;;;;;;2.84;63.78;101792.38;115582;1211;62381;-74
2021/04/17 04:52:01;;;;;;;3.20;1.30;;;;;;;2.84;63.84;101789.77;115800;1212;62747;-74
2021/04/17 04:54:28;;;;;;;5.80;1.95;;;;;;;2.83;64.16;101785.47;115580;1211;62686;-74
2021/04/17 04:56:54;;;;;;;4.63;1.40;;;;;;;2.83;64.08;101790.72;115622;1212;62194;-74
2021/04/17 04:59:21;;;;;;;2.07;1.00;;;;;;;2.83;64.28;101779.41;115761;1212;62932;-74
2021/04/17 05:01:47;;;;;;;5.50;1.95;;;;;;;2.85;64.31;101788.84;115568;1211;62340;-74
2021/04/17 05:04:14;;;;;;;4.80;2.10;;;;;;;2.86;64.02;101785.27;115714;1210;62531;-75
2021/04/17 05:06:41;;;;;;;6.67;1.50;;;;;;;2.89;64.14;101788.63;115842;1211;62421;-75
2021/04/17 05:09:07;;;;;;;7.40;2.10;;;;;;;2.90;64.26;101790.33;115774;1212;62403;-76
2021/04/17 05:11:34;;;;;;;8.75;2.75;;;;;;;2.91;64.12;101797.23;115790;1211;62188;-75
2021/04/17 05:14:01;;;;;;;3.73;1.47;;;;;;;2.93;64.34;101780.47;115762;1212;62458;-75
2021/04/17 05:16:27;;;;;;;6.10;1.70;;;;;;;2.95;64.48;101778.59;115605;1211;62596;-75
2021/04/17 05:18:54;;;;;;;4.60;1.90;;;;;;;2.94;64.40;101776.92;115576;1212;62647;-76
2021/04/17 05:21:21;;;;;;;6.90;2.60;;;;;;;2.96;64.17;101782.91;115641;1212;63135;-76
2021/04/17 05:23:58;;;;;;;4.30;2.20;;;;;;;2.96;64.19;101788.15;115580;1212;62634;-76
2021/04/17 05:26:24;;;;;;;3.97;2.10;;;;;;;3.01;64.18;101779.98;115782;1212;62237;-76
2021/04/17 05:28:50;;;;;;;7.77;2.43;;;;;;;3.05;64.15;101776.23;115736;1212;62569;-76
2021/04/17 05:31:17;;;;;;;7.67;2.33;;;;;;;3.10;64.30;101781.17;115572;1211;62198;-76
2021/04/17 05:33:44;;;;;;;7.30;2.20;;;;;;;3.15;64.06;101779.94;115532;1212;62477;-75
2021/04/17 05:36:11;;;;;;;4.90;1.87;;;;;;;3.21;64.10;101771.67;115212;1212;64538;-74
2021/04/17 05:38:37;;;;;;;4.93;2.17;;;;;;;3.26;64.55;101773.99;115527;1212;62483;-75
2021/04/17 05:41:04;;;;;;;4.70;1.93;;;;;;;3.31;64.26;101768.44;115817;1212;62250;-76
2021/04/17 05:43:30;;;;;;;3.90;1.70;;;;;;;3.36;64.00;101777.69;115586;1212;62410;-76
2021/04/17 05:45:57;;;;;;;7.20;2.75;;;;;;;3.42;63.79;101771.18;115796;1212;62358;-76
2021/04/17 05:48:24;;;;;;;5.40;2.30;;;;;;;3.48;64.61;101770.77;115535;1212;62667;-76
2021/04/17 05:50:50;;;;;;;5.27;2.70;;;;;;;3.53;64.29;101765.22;115553;1211;62149;-76
2021/04/17 05:53:17;;;;;;;7.25;2.40;;;;;;;3.58;64.26;101761.35;115778;1212;62345;-76
2021/04/17 05:55:44;;;;;;;9.15;2.40;;;;;;;3.63;64.31;101764.52;115844;1212;62330;-76
2021/04/17 05:58:10;;;;;;;9.40;2.40;;;;;;;3.66;64.48;101761.68;115602;1211;62899;-76
2021/04/17 06:00:37;;;;;;;3.97;1.70;;;;;;;3.71;64.65;101755.28;115557;1212;62954;-75
2021/04/17 06:03:05;;;;;;;3.85;2.00;;;;;;;3.73;64.16;101756.02;115866;1212;62030;-75
2021/04/17 06:05:31;;;;;;;5.20;1.97;;;;;;;3.77;64.00;101749.63;115859;1212;62297;-75
2021/04/17 06:08:02;;;;;;;7.30;2.95;;;;;;;3.84;64.13;101753.49;115609;1211;62371;-75
2021/04/17 06:10:29;;;;;;;6.05;2.40;;;;;;;3.93;63.99;101758.13;115613;1211;62165;-75
2021/04/17 06:12:55;;;;;;;10.60;2.55;;;;;;;4.04;63.72;101758.22;115510;1212;62354;-75
2021/04/17 06:15:24;;;;;;;3.93;1.33;;;;;;;4.11;63.98;101769.14;115802;1211;62302;-75
2021/04/17 06:17:51;;;;;;;3.40;1.53;;;;;;;4.17;63.86;101758.20;115585;1212;64031;-75
2021/04/17 06:20:18;;;;;;;13.30;3.07;;;;;;;4.26;63.45;101761.97;115576;1212;62200;-75
2021/04/17 06:22:45;;;;;;;7.70;2.90;;;;;;;4.34;62.23;101764.91;115577;1211;63979;-75
2021/04/17 06:25:12;;;;;;;8.30;2.50;;;;;;;4.40;62.68;101760.98;115540;1212;62625;-74
2021/04/17 06:27:39;;;;;;;5.40;2.00;;;;;;;4.51;62.15;101760.25;115464;1212;62347;-75
2021/04/17 06:30:06;;;;;;;4.95;1.70;;;;;;;4.60;62.34;101764.84;115567;1212;62571;-73
2021/04/17 06:32:33;;;;;;;6.23;2.27;;;;;;;4.72;61.84;101761.34;115570;1212;62811;-73
2021/04/17 06:35:00;;;;;;;6.23;2.53;;;;;;;4.82;62.34;101759.70;115571;1211;63379;-73
2021/04/17 06:37:26;;;;;;;6.15;2.40;;;;;;;4.89;60.80;101746.98;115755;1211;62414;-74
2021/04/17 06:39:53;;;;;;;4.50;2.10;;;;;;;5.00;61.03;101740.93;115731;1212;62349;-73
2021/04/17 06:42:24;;;;;;;5.00;2.40;;;;;;;5.03;61.19;101746.78;115592;1212;62465;-76
2021/04/17 06:44:52;;;;;;;4.75;2.40;;;;;;;5.09;59.97;101742.88;115834;1211;62676;-75
2021/04/17 06:47:20;;;;;;;6.45;2.30;;;;;;;5.15;60.64;101745.05;115562;1212;63195;-75
2021/04/17 06:49:48;;;;;;;5.17;2.37;;;;;;;5.20;60.07;101752.59;115768;1212;62579;-75
2021/04/17 06:52:15;;;;;;;4.00;2.05;;;;;;;5.20;60.45;101753.42;115511;1212;62405;-71
2021/04/17 06:54:45;;;;;;;4.30;2.40;;;;;;;5.20;60.80;101749.97;115567;1211;62406;-72
2021/04/17 06:57:13;;;;;;;3.20;2.00;;;;;;;5.24;60.40;101756.67;115596;1212;62355;-73
2021/04/17 06:59:42;;;;;;;3.40;2.00;;;;;;;5.29;60.21;101751.90;115556;1212;63427;-72
2021/04/17 07:02:17;;;;;;;2.83;1.60;;;;;;;5.36;60.64;101747.05;115885;1212;62451;-72
2021/04/17 07:04:44;;;;;;;3.97;1.63;;;;;;;5.38;59.79;101739.88;115794;1212;62346;-74
2021/04/17 07:07:12;;;;;;;5.50;1.57;;;;;;;5.43;59.58;101730.66;115641;1212;62660;-73
2021/04/17 07:09:39;;;;;;;6.90;2.20;;;;;;;5.43;59.53;101728.03;115762;1212;63332;-73
2021/04/17 07:12:06;;;;;;;9.00;2.20;;;;;;;5.46;58.97;101737.48;115546;1211;62949;-74
2021/04/17 07:14:47;;;;;;;3.17;2.10;;;;;;;5.55;59.46;101742.06;115598;1212;62527;-74
2021/04/17 07:17:16;;;;;;;6.55;2.30;;;;;;;5.66;59.22;101742.08;115813;1212;62399;-74
2021/04/17 07:19:59;;;;;;;6.00;2.80;;;;;;;5.78;58.51;101742.95;115790;1212;62369;-74
2021/04/17 07:22:32;;;;;;;5.47;2.53;;;;;;;5.83;58.74;101746.05;115608;1211;62603;-74
2021/04/17 07:25:05;;;;;;;4.20;1.40;;;;;;;5.87;58.26;101736.13;115825;1212;62959;-74
2021/04/17 07:27:40;;;;;;;5.20;1.90;;;;;;;5.92;58.45;101726.89;115778;1212;62558;-74
2021/04/17 07:30:15;;;;;;;5.47;2.67;;;;;;;5.97;58.95;101726.59;115831;1211;62226;-74
2021/04/17 07:32:47;;;;;;;6.07;2.20;;;;;;;5.93;57.93;101723.33;115639;1212;62069;-73
2021/04/17 07:35:15;;;;;;;7.75;2.30;;;;;;;5.98;58.32;101736.16;115803;1212;62138;-74
2021/04/17 07:37:45;;;;;;;3.95;2.00;;;;;;;6.04;57.77;101727.78;115811;1211;62553;-74
2021/04/17 07:40:20;;;;;;;6.60;2.30;;;;;;;6.19;57.28;101735.45;115762;1212;62174;-73
2021/04/17 07:42:58;;;;;;;6.35;2.10;;;;;;;6.31;56.42;101726.55;115781;1211;62191;-73
2021/04/17 07:45:32;;;;;;;5.60;2.53;;;;;;;6.40;56.66;101722.38;115832;1211;62362;-75
2021/04/17 07:48:28;;;;;;;4.80;2.30;;;;;;;6.55;57.26;101715.04;115804;1211;62213;-73
2021/04/17 07:50:59;;;;;;;5.10;1.90;;;;;;;6.61;55.91;101702.20;115827;1211;62588;-74
2021/04/17 07:53:34;;;;;;;4.00;2.30;;;;;;;6.65;56.03;101705.40;115763;1212;62471;-74
2021/04/17 07:56:26;;;;;;;5.85;2.65;;;;;;;6.61;55.95;101690.78;115564;1212;62376;-73
2021/04/17 07:58:59;;;;;;;3.87;1.70;;;;;;;6.57;55.95;101694.63;115705;1212;62827;-73
2021/04/17 08:01:27;;;;;;;2.93;1.70;;;;;;;6.55;55.66;101712.41;115832;1211;62150;-73
2021/04/17 08:03:56;;;;;;;5.70;3.50;;;;;;;6.52;56.18;101701.14;115772;1212;62945;-74
2021/04/17 08:06:25;;;;;;;7.15;2.50;;;;;;;6.56;56.01;101698.24;115728;1212;62156;-73
2021/04/17 08:08:54;;;;;;;5.10;1.90;;;;;;;6.58;55.84;101691.05;115808;1212;62046;-74
2021/04/17 08:11:23;;;;;;;4.37;1.93;;;;;;;6.66;55.15;101691.27;115728;1212;62767;-73
2021/04/17 08:13:51;;;;;;;3.83;1.80;;;;;;;6.75;55.32;101687.88;115656;1212;62349;-74
2021/04/17 08:16:18;;;;;;;4.40;2.23;;;;;;;6.83;55.55;101682.81;115589;1211;62998;-73
2021/04/17 08:18:46;;;;;;;5.23;2.00;;;;;;;6.93;55.40;101677.63;115578;1212;62520;-73
2021/04/17 08:21:15;;;;;;;5.40;2.40;;;;;;;7.07;55.74;101679.10;115837;1211;62167;-73
2021/04/17 08:23:44;;;;;;;4.70;2.33;;;;;;;7.19;54.92;101687.81;115610;1211;62241;-73
2021/04/17 08:26:12;;;;;;;8.30;2.53;;;;;;;7.24;55.38;101681.16;115732;1212;62167;-73
2021/04/17 08:28:50;;;;;;;4.85;2.10;;;;;;;7.32;55.74;101689.28;115642;1212;62273;-73
2021/04/17 08:31:30;;;;;;;3.13;1.70;;;;;;;7.45;54.95;101682.97;115830;1212;62426;-73
2021/04/17 08:34:17;;;;;;;6.03;2.60;;;;;;;7.38;54.93;101684.47;115569;1212;62677;-73
2021/04/17 08:36:50;;;;;;;2.17;1.40;;;;;;;7.39;55.25;101683.48;115587;1212;62498;-73
2021/04/17 08:39:35;;;;;;;5.90;2.37;;;;;;;7.30;55.53;101680.65;115572;1212;62334;-73
2021/04/17 08:42:16;;;;;;;4.05;2.08;;;;;;;7.18;55.84;101675.56;115845;1211;64587;-73
2021/04/17 08:44:47;;;;;;;4.70;1.87;;;;;;;7.19;56.48;101670.17;115729;1212;62259;-73
2021/04/17 08:47:34;;;;;;;4.83;2.17;;;;;;;7.29;56.32;101678.16;115890;1211;62196;-73
2021/04/17 08:50:32;;;;;;;7.65;2.70;;;;;;;7.40;55.49;101671.97;115758;1212;62302;-73
2021/04/17 08:53:03;;;;;;;5.35;2.60;;;;;;;7.46;55.94;101680.20;115833;1212;62395;-73
2021/04/17 08:55:38;;;;;;;6.03;2.10;;;;;;;7.60;55.67;101679.02;115660;1211;62287;-73
2021/04/17 08:58:21;;;;;;;4.70;2.10;;;;;;;7.81;55.41;101672.86;115577;1212;62497;-73
2021/04/17 09:00:53;;;;;;;4.60;2.95;;;;;;;8.04;55.03;101674.34;115718;1212;62334;-73
2021/04/17 09:03:43;;;;;;;4.50;2.35;;;;;;;8.31;54.82;101670.25;115810;1212;62059;-74
2021/04/17 09:06:33;;;;;;;5.00;2.35;;;;;;;8.65;53.26;101672.52;115793;1212;62692;-74
2021/04/17 09:09:15;;;;;;;5.47;3.13;;;;;;;8.78;53.02;101663.36;115420;1212;64403;-74
2021/04/17 09:11:47;;;;;;;4.65;2.00;;;;;;;8.91;51.99;101663.08;115810;1212;62276;-74
2021/04/17 09:14:26;;;;;;;4.90;2.63;;;;;;;9.06;52.44;101665.30;115761;1212;62702;-75
2021/04/17 09:16:54;;;;;;;7.13;2.23;;;;;;;9.06;51.71;101662.65;115859;1210;62367;-75
2021/04/17 09:19:40;;;;;;;4.20;2.20;;;;;;;9.00;51.64;101661.39;115642;1212;62148;-75
2021/04/17 09:22:25;;;;;;;4.43;3.10;;;;;;;8.97;51.70;101664.33;115613;1212;62810;-74
2021/04/17 09:24:53;;;;;;;;;;;;;;;8.95;52.02;101661.82;115838;1216;62211;-74
2021/04/17 09:27:30;;;;;;;4.43;2.20;;;;;;;8.91;51.77;101660.42;115837;1211;62286;-75
2021/04/17 09:30:03;;;;;;;5.10;2.27;;;;;;;9.02;52.26;101658.61;115637;1211;62304;-74
2021/04/17 09:32:43;;;;;;;6.25;2.75;;;;;;;9.09;52.95;101659.70;115628;1212;62191;-73
2021/04/17 09:35:36;;;;;;;6.00;2.70;;;;;;;9.21;51.91;101658.58;115598;1212;62295;-73
2021/04/17 09:38:15;;;;;;;2.75;1.80;;;;;;;9.37;50.99;101661.48;115584;1211;63054;-73
2021/04/17 09:40:46;;;;;;;5.10;2.00;;;;;;;9.48;50.69;101649.88;115611;1212;62374;-73
2021/04/17 09:43:33;;;;;;;5.70;2.40;;;;;;;9.48;50.43;101649.88;115636;1211;62538;-73
2021/04/17 09:46:03;;;;;;;5.70;2.83;;;;;;;9.61;50.22;101646.08;115723;1212;62221;-74
2021/04/17 09:48:41;;;;;;;3.30;2.00;;;;;;;9.78;50.42;101647.95;115876;1212;62423;-74
2021/04/17 09:51:27;;;;;;;3.77;1.80;;;;;;;9.97;49.17;101644.38;115638;1212;62328;-74
2021/04/17 09:54:01;;;;;;;5.10;1.90;;;;;;;10.11;47.30;101635.91;115858;1212;62145;-73
2021/04/17 09:56:30;;;;;;;4.00;1.80;;;;;;;10.16;48.09;101635.48;115846;1212;64273;-73
2021/04/17 09:59:05;;;;;;;6.87;1.97;;;;;;;10.30;49.18;101624.38;115637;1212;62256;-73
2021/04/17 10:01:31;;;;;;;4.27;1.67;;;;;;;10.55;48.23;101624.63;115641;1211;62342;-73
2021/04/17 10:04:00;;;;;;;5.67;2.40;;;;;;;10.77;45.91;101628.62;115661;1211;62426;-73
2021/04/17 10:06:35;;;;;;;5.70;2.03;;;;;;;10.94;46.11;101621.62;115638;1212;62435;-72
2021/04/17 10:09:04;;;;;;;7.15;2.50;;;;;;;11.10;44.80;101620.92;115644;1211;62090;-73
2021/04/17 10:11:31;;;;;;;5.30;1.40;;;;;;;11.25;43.10;101619.35;115610;1212;62138;-74
2021/04/17 10:13:57;;;;;;;2.57;1.27;;;;;;;11.46;43.85;101621.63;115846;1211;62481;-74
2021/04/17 10:16:31;;;;;;;5.30;2.60;;;;;;;11.70;44.10;101623.56;115585;1212;62388;-74
2021/04/17 10:19:04;;;;;;;4.08;1.53;;;;;;;12.06;43.05;101607.44;115812;1212;62237;-74
2021/04/17 10:21:33;;;;;;;6.80;1.80;;;;;;;12.20;43.23;101609.48;115753;1212;62125;-74
2021/04/17 10:24:24;;;;;;;4.20;2.30;;;;;;;12.34;41.71;101609.83;115988;1211;63149;-74
2021/04/17 10:26:53;;;;;;;5.20;2.27;;;;;;;12.31;41.80;101610.17;115617;1211;63210;-74
2021/04/17 10:29:22;;;;;;;5.10;2.05;;;;;;;12.27;42.26;101614.15;115795;1211;62290;-74
2021/04/17 10:31:59;;;;;;;4.43;1.80;;;;;;;12.23;41.17;101610.97;115800;1212;62213;-74
2021/04/17 10:34:26;;;;;;;4.25;1.75;;;;;;;12.54;40.59;101605.88;115571;1212;62148;-73
2021/04/17 10:36:58;;;;;;;3.50;1.50;;;;;;;12.84;40.51;101600.88;115806;1211;62252;-74
2021/04/17 10:39:25;;;;;;;3.43;1.73;;;;;;;12.77;39.42;101590.07;115634;1211;62170;-74
2021/04/17 10:42:04;;;;;;;4.87;1.60;;;;;;;12.73;39.73;101587.88;115606;1212;63151;-74
2021/04/17 10:44:32;;;;;;;3.05;1.50;;;;;;;12.76;39.70;101587.56;115603;1211;62343;-73
2021/04/17 10:47:00;;;;;;;2.53;1.20;;;;;;;12.89;39.53;101587.88;115833;1210;62354;-73
2021/04/17 10:49:38;;;;;;;5.35;2.00;;;;;;;12.97;39.89;101587.88;115644;1211;62359;-74
2021/04/17 10:52:26;;;;;;;4.00;2.35;;;;;;;12.92;39.73;101587.56;115811;1212;62169;-74
2021/04/17 10:54:53;;;;;;;6.57;2.27;;;;;;;12.87;40.45;101591.72;115547;1212;62430;-74
2021/04/17 10:57:21;;;;;;;3.20;1.80;;;;;;;12.83;39.48;101585.88;115594;1212;62456;-73
2021/04/17 11:00:06;;;;;;;5.03;2.10;;;;;;;12.87;39.86;101592.54;115755;1212;62413;-73
2021/04/17 11:02:35;;;;;;;3.50;1.70;;;;;;;12.87;38.55;101589.88;115744;1212;62391;-73
2021/04/17 11:05:05;;;;;;;3.37;1.50;;;;;;;12.87;39.03;101584.55;115600;1212;62762;-73
2021/04/17 11:07:38;;;;;;;2.70;1.70;;;;;;;12.90;38.28;101583.38;115624;1212;62318;-73
2021/04/17 11:10:09;;;;;;;3.30;1.30;;;;;;;12.79;37.84;101587.22;115623;1212;62464;-73
2021/04/17 11:12:38;;;;;;;3.60;1.50;;;;;;;12.81;38.74;101579.89;115800;1211;62379;-73
2021/04/17 11:15:14;;;;;;;4.93;1.50;;;;;;;12.85;37.74;101573.23;115876;1212;62172;-73
2021/04/17 11:17:41;;;;;;;4.00;1.50;;;;;;;12.92;38.42;101576.91;115649;1212;63001;-73
2021/04/17 11:20:19;;;;;;;4.20;1.60;;;;;;;12.80;39.12;101572.92;115563;1212;62909;-75
2021/04/17 11:22:47;;;;;;;3.60;1.97;;;;;;;12.80;39.65;101575.58;115618;1212;62274;-73
2021/04/17 11:25:14;;;;;;;4.07;1.20;;;;;;;12.77;38.54;101568.77;115600;1212;63187;-73
2021/04/17 11:27:41;;;;;;;3.10;1.20;;;;;;;12.75;38.15;101564.59;115851;1212;62206;-73
2021/04/17 11:30:09;;;;;;;6.33;1.90;;;;;;;12.86;38.43;101574.91;115588;1212;62961;-73
2021/04/17 11:32:37;;;;;;;5.67;1.50;;;;;;;12.83;38.09;101567.24;115603;1212;62025;-73
2021/04/17 11:35:09;;;;;;;3.10;1.15;;;;;;;12.80;38.20;101568.42;115871;1212;62206;-73
2021/04/17 11:37:35;;;;;;;2.80;1.30;;;;;;;12.74;38.89;101569.09;115872;1211;62337;-73
2021/04/17 11:40:03;;;;;;;4.00;1.45;;;;;;;12.78;39.00;101565.09;115608;1212;62135;-73